sensor_id;sensor_type;location;lat;lon;timestamp;P1;durP1;ratioP1;P2;durP2;ratioP2
70342;SDS011;57767;42.068;24.752;2024-02-26T00:00:13;29.63;;;22.00;;
70342;SDS011;57767;42.068;24.752;2024-02-26T00:01:15;28.13;;;21.48;;
70342;SDS011;57767;42.068;24.752;2024-02-26T00:02:17;25.23;;;20.42;;
70342;SDS011;57767;42.068;24.752;2024-02-26T00:03:19;29.73;;;21.17;;
70342;SDS011;57767;42.068;24.752;2024-02-26T00:04:21;27.67;;;19.92;;
70342;SDS011;57767;42.068;24.752;2024-02-26T00:05:23;31.30;;;21.25;;
70342;SDS011;57767;42.068;24.752;2024-02-26T00:06:25;27.33;;;22.05;;
70342;SDS011;57767;42.068;24.752;2024-02-26T00:07:30;29.38;;;23.65;;
70342;SDS011;57767;42.068;24.752;2024-02-26T00:08:31;32.70;;;23.80;;
70342;SDS011;57767;42.068;24.752;2024-02-26T00:09:33;33.00;;;25.13;;
70342;SDS011;57767;42.068;24.752;2024-02-26T00:10:37;36.03;;;25.08;;
70342;SDS011;57767;42.068;24.752;2024-02-26T00:11:39;31.00;;;23.45;;
70342;SDS011;57767;42.068;24.752;2024-02-26T00:12:40;33.35;;;21.95;;
70342;SDS011;57767;42.068;24.752;2024-02-26T00:13:42;31.90;;;22.25;;
70342;SDS011;57767;42.068;24.752;2024-02-26T00:14:43;31.63;;;22.15;;
70342;SDS011;57767;42.068;24.752;2024-02-26T00:15:47;27.15;;;20.33;;
70342;SDS011;57767;42.068;24.752;2024-02-26T00:16:48;30.85;;;21.15;;
70342;SDS011;57767;42.068;24.752;2024-02-26T00:17:50;26.13;;;20.20;;
70342;SDS011;57767;42.068;24.752;2024-02-26T00:18:52;29.20;;;21.02;;
70342;SDS011;57767;42.068;24.752;2024-02-26T00:19:54;33.05;;;22.85;;
70342;SDS011;57767;42.068;24.752;2024-02-26T00:20:55;35.95;;;25.90;;
70342;SDS011;57767;42.068;24.752;2024-02-26T00:21:57;33.40;;;26.08;;
70342;SDS011;57767;42.068;24.752;2024-02-26T00:22:59;35.95;;;25.85;;
70342;SDS011;57767;42.068;24.752;2024-02-26T00:24:00;35.28;;;25.92;;
70342;SDS011;57767;42.068;24.752;2024-02-26T00:25:02;40.88;;;28.23;;
70342;SDS011;57767;42.068;24.752;2024-02-26T00:26:06;38.35;;;28.50;;
70342;SDS011;57767;42.068;24.752;2024-02-26T00:27:09;40.20;;;29.98;;
70342;SDS011;57767;42.068;24.752;2024-02-26T00:28:10;42.05;;;29.90;;
70342;SDS011;57767;42.068;24.752;2024-02-26T00:29:12;41.13;;;30.17;;
70342;SDS011;57767;42.068;24.752;2024-02-26T00:30:14;40.53;;;28.02;;
70342;SDS011;57767;42.068;24.752;2024-02-26T00:31:15;38.67;;;29.60;;
70342;SDS011;57767;42.068;24.752;2024-02-26T00:32:17;40.40;;;29.85;;
70342;SDS011;57767;42.068;24.752;2024-02-26T00:33:19;41.95;;;29.40;;
70342;SDS011;57767;42.068;24.752;2024-02-26T00:34:21;40.10;;;28.42;;
70342;SDS011;57767;42.068;24.752;2024-02-26T00:35:22;38.05;;;28.27;;
70342;SDS011;57767;42.068;24.752;2024-02-26T00:36:24;40.55;;;29.80;;
70342;SDS011;57767;42.068;24.752;2024-02-26T00:37:26;36.28;;;27.63;;
70342;SDS011;57767;42.068;24.752;2024-02-26T00:38:27;34.85;;;26.05;;
70342;SDS011;57767;42.068;24.752;2024-02-26T00:39:29;39.90;;;27.38;;
70342;SDS011;57767;42.068;24.752;2024-02-26T00:40:30;35.63;;;27.08;;
70342;SDS011;57767;42.068;24.752;2024-02-26T00:41:32;41.83;;;30.15;;
70342;SDS011;57767;42.068;24.752;2024-02-26T00:42:34;49.05;;;29.17;;
70342;SDS011;57767;42.068;24.752;2024-02-26T00:43:35;42.92;;;30.40;;
70342;SDS011;57767;42.068;24.752;2024-02-26T00:44:39;40.63;;;31.48;;
70342;SDS011;57767;42.068;24.752;2024-02-26T00:45:41;45.47;;;33.92;;
70342;SDS011;57767;42.068;24.752;2024-02-26T00:46:42;43.35;;;33.58;;
70342;SDS011;57767;42.068;24.752;2024-02-26T00:47:44;49.33;;;35.65;;
70342;SDS011;57767;42.068;24.752;2024-02-26T00:48:47;46.90;;;34.75;;
70342;SDS011;57767;42.068;24.752;2024-02-26T00:49:49;51.97;;;36.67;;
70342;SDS011;57767;42.068;24.752;2024-02-26T00:50:51;46.90;;;37.53;;
70342;SDS011;57767;42.068;24.752;2024-02-26T00:51:53;48.25;;;35.92;;
70342;SDS011;57767;42.068;24.752;2024-02-26T00:52:54;54.60;;;36.45;;
70342;SDS011;57767;42.068;24.752;2024-02-26T00:53:56;358.95;;;128.90;;
70342;SDS011;57767;42.068;24.752;2024-02-26T00:54:57;126.57;;;56.58;;
70342;SDS011;57767;42.068;24.752;2024-02-26T00:55:59;56.17;;;38.42;;
70342;SDS011;57767;42.068;24.752;2024-02-26T00:57:01;50.95;;;37.15;;
70342;SDS011;57767;42.068;24.752;2024-02-26T00:58:02;54.35;;;38.75;;
70342;SDS011;57767;42.068;24.752;2024-02-26T00:59:04;49.38;;;37.10;;
70342;SDS011;57767;42.068;24.752;2024-02-26T01:00:06;52.67;;;39.35;;
70342;SDS011;57767;42.068;24.752;2024-02-26T01:01:10;54.15;;;37.80;;
70342;SDS011;57767;42.068;24.752;2024-02-26T01:02:11;52.53;;;37.90;;
70342;SDS011;57767;42.068;24.752;2024-02-26T01:03:13;53.92;;;37.13;;
70342;SDS011;57767;42.068;24.752;2024-02-26T01:04:15;45.10;;;35.58;;
70342;SDS011;57767;42.068;24.752;2024-02-26T01:05:16;59.25;;;47.17;;
70342;SDS011;57767;42.068;24.752;2024-02-26T01:06:18;51.30;;;40.88;;
70342;SDS011;57767;42.068;24.752;2024-02-26T01:07:20;50.50;;;38.65;;
70342;SDS011;57767;42.068;24.752;2024-02-26T01:08:22;48.45;;;35.60;;
70342;SDS011;57767;42.068;24.752;2024-02-26T01:09:23;43.95;;;34.67;;
70342;SDS011;57767;42.068;24.752;2024-02-26T01:10:25;44.60;;;34.67;;
70342;SDS011;57767;42.068;24.752;2024-02-26T01:11:26;51.38;;;33.95;;
70342;SDS011;57767;42.068;24.752;2024-02-26T01:12:28;40.67;;;32.55;;
70342;SDS011;57767;42.068;24.752;2024-02-26T01:13:30;51.58;;;33.92;;
70342;SDS011;57767;42.068;24.752;2024-02-26T01:14:33;45.17;;;33.05;;
70342;SDS011;57767;42.068;24.752;2024-02-26T01:15:34;40.22;;;30.30;;
70342;SDS011;57767;42.068;24.752;2024-02-26T01:16:36;42.83;;;31.83;;
70342;SDS011;57767;42.068;24.752;2024-02-26T01:17:37;43.55;;;32.75;;
70342;SDS011;57767;42.068;24.752;2024-02-26T01:18:40;41.00;;;32.33;;
70342;SDS011;57767;42.068;24.752;2024-02-26T01:19:42;39.67;;;30.83;;
70342;SDS011;57767;42.068;24.752;2024-02-26T01:20:43;43.45;;;31.98;;
70342;SDS011;57767;42.068;24.752;2024-02-26T01:21:45;44.88;;;32.05;;
70342;SDS011;57767;42.068;24.752;2024-02-26T01:22:47;36.05;;;29.38;;
70342;SDS011;57767;42.068;24.752;2024-02-26T01:23:48;39.00;;;30.05;;
70342;SDS011;57767;42.068;24.752;2024-02-26T01:24:50;38.22;;;29.13;;
70342;SDS011;57767;42.068;24.752;2024-02-26T01:25:52;42.05;;;29.25;;
70342;SDS011;57767;42.068;24.752;2024-02-26T01:26:53;40.45;;;29.42;;
70342;SDS011;57767;42.068;24.752;2024-02-26T01:27:55;40.38;;;30.13;;
70342;SDS011;57767;42.068;24.752;2024-02-26T01:28:57;36.72;;;28.75;;
70342;SDS011;57767;42.068;24.752;2024-02-26T01:29:58;39.95;;;30.83;;
70342;SDS011;57767;42.068;24.752;2024-02-26T01:31:00;36.78;;;30.35;;
70342;SDS011;57767;42.068;24.752;2024-02-26T01:32:01;37.30;;;28.73;;
70342;SDS011;57767;42.068;24.752;2024-02-26T01:33:06;39.88;;;27.98;;
70342;SDS011;57767;42.068;24.752;2024-02-26T01:34:08;38.88;;;29.15;;
70342;SDS011;57767;42.068;24.752;2024-02-26T01:35:10;37.15;;;27.75;;
70342;SDS011;57767;42.068;24.752;2024-02-26T01:36:13;38.05;;;28.92;;
70342;SDS011;57767;42.068;24.752;2024-02-26T01:37:15;39.33;;;29.92;;
70342;SDS011;57767;42.068;24.752;2024-02-26T01:38:16;34.70;;;28.13;;
70342;SDS011;57767;42.068;24.752;2024-02-26T01:39:18;36.13;;;28.58;;
70342;SDS011;57767;42.068;24.752;2024-02-26T01:40:19;40.33;;;28.67;;
70342;SDS011;57767;42.068;24.752;2024-02-26T01:41:21;35.15;;;26.55;;
70342;SDS011;57767;42.068;24.752;2024-02-26T01:42:23;40.42;;;26.33;;
70342;SDS011;57767;42.068;24.752;2024-02-26T01:43:24;34.67;;;25.17;;
70342;SDS011;57767;42.068;24.752;2024-02-26T01:44:26;30.40;;;25.00;;
70342;SDS011;57767;42.068;24.752;2024-02-26T01:45:28;34.45;;;26.05;;
70342;SDS011;57767;42.068;24.752;2024-02-26T01:46:30;31.60;;;23.40;;
70342;SDS011;57767;42.068;24.752;2024-02-26T01:47:34;37.70;;;26.33;;
70342;SDS011;57767;42.068;24.752;2024-02-26T01:48:36;30.92;;;25.13;;
70342;SDS011;57767;42.068;24.752;2024-02-26T01:49:38;33.47;;;24.80;;
70342;SDS011;57767;42.068;24.752;2024-02-26T01:50:41;32.25;;;26.17;;
70342;SDS011;57767;42.068;24.752;2024-02-26T01:51:42;30.98;;;23.92;;
70342;SDS011;57767;42.068;24.752;2024-02-26T01:52:45;31.25;;;24.00;;
70342;SDS011;57767;42.068;24.752;2024-02-26T01:53:48;32.65;;;24.05;;
70342;SDS011;57767;42.068;24.752;2024-02-26T01:54:50;34.72;;;24.58;;
70342;SDS011;57767;42.068;24.752;2024-02-26T01:55:51;33.88;;;25.30;;
70342;SDS011;57767;42.068;24.752;2024-02-26T01:56:53;29.55;;;24.40;;
70342;SDS011;57767;42.068;24.752;2024-02-26T01:57:55;31.67;;;24.45;;
70342;SDS011;57767;42.068;24.752;2024-02-26T01:58:57;35.65;;;24.40;;
70342;SDS011;57767;42.068;24.752;2024-02-26T02:00:00;33.90;;;23.63;;
70342;SDS011;57767;42.068;24.752;2024-02-26T02:01:02;31.02;;;24.08;;
70342;SDS011;57767;42.068;24.752;2024-02-26T02:02:05;32.72;;;25.50;;
70342;SDS011;57767;42.068;24.752;2024-02-26T02:03:09;32.72;;;25.50;;
70342;SDS011;57767;42.068;24.752;2024-02-26T02:04:11;31.15;;;23.33;;
70342;SDS011;57767;42.068;24.752;2024-02-26T02:05:13;36.42;;;25.45;;
70342;SDS011;57767;42.068;24.752;2024-02-26T02:06:18;30.30;;;23.40;;
70342;SDS011;57767;42.068;24.752;2024-02-26T02:07:21;29.15;;;24.52;;
70342;SDS011;57767;42.068;24.752;2024-02-26T02:08:24;30.40;;;23.65;;
70342;SDS011;57767;42.068;24.752;2024-02-26T02:09:26;31.65;;;24.42;;
70342;SDS011;57767;42.068;24.752;2024-02-26T02:10:31;31.90;;;24.25;;
70342;SDS011;57767;42.068;24.752;2024-02-26T02:11:33;33.85;;;23.83;;
70342;SDS011;57767;42.068;24.752;2024-02-26T02:12:35;29.42;;;24.05;;
70342;SDS011;57767;42.068;24.752;2024-02-26T02:13:39;32.53;;;22.42;;
70342;SDS011;57767;42.068;24.752;2024-02-26T02:14:41;34.88;;;22.55;;
70342;SDS011;57767;42.068;24.752;2024-02-26T02:15:43;31.98;;;24.05;;
70342;SDS011;57767;42.068;24.752;2024-02-26T02:16:44;32.35;;;24.63;;
70342;SDS011;57767;42.068;24.752;2024-02-26T02:17:46;37.67;;;26.40;;
70342;SDS011;57767;42.068;24.752;2024-02-26T02:18:49;36.33;;;26.95;;
70342;SDS011;57767;42.068;24.752;2024-02-26T02:19:50;30.80;;;25.83;;
70342;SDS011;57767;42.068;24.752;2024-02-26T02:20:53;36.58;;;27.85;;
70342;SDS011;57767;42.068;24.752;2024-02-26T02:21:55;35.80;;;28.70;;
70342;SDS011;57767;42.068;24.752;2024-02-26T02:22:56;37.92;;;27.67;;
70342;SDS011;57767;42.068;24.752;2024-02-26T02:23:58;39.05;;;28.00;;
70342;SDS011;57767;42.068;24.752;2024-02-26T02:25:00;37.72;;;27.00;;
70342;SDS011;57767;42.068;24.752;2024-02-26T02:26:01;35.13;;;28.95;;
70342;SDS011;57767;42.068;24.752;2024-02-26T02:27:03;35.55;;;28.60;;
70342;SDS011;57767;42.068;24.752;2024-02-26T02:28:05;32.42;;;27.40;;
70342;SDS011;57767;42.068;24.752;2024-02-26T02:29:07;34.78;;;28.08;;
70342;SDS011;57767;42.068;24.752;2024-02-26T02:30:11;37.22;;;28.80;;
70342;SDS011;57767;42.068;24.752;2024-02-26T02:31:13;40.20;;;29.27;;
70342;SDS011;57767;42.068;24.752;2024-02-26T02:32:16;39.08;;;28.88;;
70342;SDS011;57767;42.068;24.752;2024-02-26T02:33:19;36.47;;;26.67;;
70342;SDS011;57767;42.068;24.752;2024-02-26T02:34:22;34.08;;;26.65;;
70342;SDS011;57767;42.068;24.752;2024-02-26T02:35:24;35.65;;;28.42;;
70342;SDS011;57767;42.068;24.752;2024-02-26T02:36:26;37.92;;;27.33;;
70342;SDS011;57767;42.068;24.752;2024-02-26T02:37:28;38.42;;;28.95;;
70342;SDS011;57767;42.068;24.752;2024-02-26T02:38:29;34.05;;;27.30;;
70342;SDS011;57767;42.068;24.752;2024-02-26T02:39:32;36.10;;;28.17;;
70342;SDS011;57767;42.068;24.752;2024-02-26T02:40:34;35.72;;;28.20;;
70342;SDS011;57767;42.068;24.752;2024-02-26T02:41:36;33.85;;;28.10;;
70342;SDS011;57767;42.068;24.752;2024-02-26T02:42:37;39.38;;;29.08;;
70342;SDS011;57767;42.068;24.752;2024-02-26T02:43:39;33.72;;;27.67;;
70342;SDS011;57767;42.068;24.752;2024-02-26T02:44:40;38.45;;;29.35;;
70342;SDS011;57767;42.068;24.752;2024-02-26T02:45:42;35.75;;;27.30;;
70342;SDS011;57767;42.068;24.752;2024-02-26T02:46:44;36.67;;;27.10;;
70342;SDS011;57767;42.068;24.752;2024-02-26T02:47:45;39.42;;;29.67;;
70342;SDS011;57767;42.068;24.752;2024-02-26T02:48:47;39.85;;;30.38;;
70342;SDS011;57767;42.068;24.752;2024-02-26T02:49:49;34.40;;;27.52;;
70342;SDS011;57767;42.068;24.752;2024-02-26T02:50:51;36.97;;;29.08;;
70342;SDS011;57767;42.068;24.752;2024-02-26T02:51:52;37.05;;;27.95;;
70342;SDS011;57767;42.068;24.752;2024-02-26T02:52:55;38.40;;;29.30;;
70342;SDS011;57767;42.068;24.752;2024-02-26T02:53:57;42.72;;;29.60;;
70342;SDS011;57767;42.068;24.752;2024-02-26T02:54:58;39.38;;;29.40;;
70342;SDS011;57767;42.068;24.752;2024-02-26T02:56:00;38.83;;;29.73;;
70342;SDS011;57767;42.068;24.752;2024-02-26T02:57:02;41.08;;;27.80;;
70342;SDS011;57767;42.068;24.752;2024-02-26T02:58:04;37.53;;;26.23;;
70342;SDS011;57767;42.068;24.752;2024-02-26T02:59:06;34.85;;;27.88;;
70342;SDS011;57767;42.068;24.752;2024-02-26T03:00:08;39.47;;;28.63;;
70342;SDS011;57767;42.068;24.752;2024-02-26T03:01:10;39.72;;;28.60;;
70342;SDS011;57767;42.068;24.752;2024-02-26T03:02:12;40.95;;;29.60;;
70342;SDS011;57767;42.068;24.752;2024-02-26T03:03:13;39.20;;;28.20;;
70342;SDS011;57767;42.068;24.752;2024-02-26T03:04:15;40.38;;;30.70;;
70342;SDS011;57767;42.068;24.752;2024-02-26T03:05:17;42.78;;;30.60;;
70342;SDS011;57767;42.068;24.752;2024-02-26T03:06:18;43.72;;;31.58;;
70342;SDS011;57767;42.068;24.752;2024-02-26T03:07:22;42.22;;;32.17;;
70342;SDS011;57767;42.068;24.752;2024-02-26T03:08:24;42.13;;;29.13;;
70342;SDS011;57767;42.068;24.752;2024-02-26T03:09:30;43.85;;;30.65;;
70342;SDS011;57767;42.068;24.752;2024-02-26T03:10:31;39.97;;;30.70;;
70342;SDS011;57767;42.068;24.752;2024-02-26T03:11:33;43.83;;;32.67;;
70342;SDS011;57767;42.068;24.752;2024-02-26T03:12:34;40.53;;;30.52;;
70342;SDS011;57767;42.068;24.752;2024-02-26T03:13:36;42.30;;;30.13;;
70342;SDS011;57767;42.068;24.752;2024-02-26T03:14:38;42.05;;;30.52;;
70342;SDS011;57767;42.068;24.752;2024-02-26T03:15:39;40.65;;;31.40;;
70342;SDS011;57767;42.068;24.752;2024-02-26T03:16:41;41.17;;;32.20;;
70342;SDS011;57767;42.068;24.752;2024-02-26T03:17:43;39.80;;;31.67;;
70342;SDS011;57767;42.068;24.752;2024-02-26T03:18:44;43.78;;;31.98;;
70342;SDS011;57767;42.068;24.752;2024-02-26T03:19:46;45.08;;;32.13;;
70342;SDS011;57767;42.068;24.752;2024-02-26T03:20:49;39.13;;;30.55;;
70342;SDS011;57767;42.068;24.752;2024-02-26T03:21:50;41.13;;;31.13;;
70342;SDS011;57767;42.068;24.752;2024-02-26T03:22:52;41.38;;;29.58;;
70342;SDS011;57767;42.068;24.752;2024-02-26T03:23:54;43.58;;;29.20;;
70342;SDS011;57767;42.068;24.752;2024-02-26T03:24:57;37.92;;;27.73;;
70342;SDS011;57767;42.068;24.752;2024-02-26T03:25:58;34.15;;;25.77;;
70342;SDS011;57767;42.068;24.752;2024-02-26T03:27:00;36.15;;;26.75;;
70342;SDS011;57767;42.068;24.752;2024-02-26T03:28:01;34.78;;;28.90;;
70342;SDS011;57767;42.068;24.752;2024-02-26T03:29:03;49.90;;;38.38;;
70342;SDS011;57767;42.068;24.752;2024-02-26T03:30:05;55.40;;;43.42;;
70342;SDS011;57767;42.068;24.752;2024-02-26T03:31:08;40.70;;;34.05;;
70342;SDS011;57767;42.068;24.752;2024-02-26T03:32:09;47.97;;;37.90;;
70342;SDS011;57767;42.068;24.752;2024-02-26T03:33:11;51.38;;;38.25;;
70342;SDS011;57767;42.068;24.752;2024-02-26T03:34:13;42.47;;;32.03;;
70342;SDS011;57767;42.068;24.752;2024-02-26T03:35:16;44.67;;;30.88;;
70342;SDS011;57767;42.068;24.752;2024-02-26T03:36:17;45.47;;;31.75;;
70342;SDS011;57767;42.068;24.752;2024-02-26T03:37:19;39.13;;;29.52;;
70342;SDS011;57767;42.068;24.752;2024-02-26T03:38:21;42.60;;;31.75;;
70342;SDS011;57767;42.068;24.752;2024-02-26T03:39:22;37.03;;;30.58;;
70342;SDS011;57767;42.068;24.752;2024-02-26T03:40:24;39.30;;;31.02;;
70342;SDS011;57767;42.068;24.752;2024-02-26T03:41:25;37.85;;;29.67;;
70342;SDS011;57767;42.068;24.752;2024-02-26T03:42:27;38.30;;;29.38;;
70342;SDS011;57767;42.068;24.752;2024-02-26T03:43:29;42.10;;;32.15;;
70342;SDS011;57767;42.068;24.752;2024-02-26T03:44:30;42.92;;;32.53;;
70342;SDS011;57767;42.068;24.752;2024-02-26T03:45:32;43.38;;;33.03;;
70342;SDS011;57767;42.068;24.752;2024-02-26T03:46:34;41.75;;;32.95;;
70342;SDS011;57767;42.068;24.752;2024-02-26T03:47:37;46.22;;;32.10;;
70342;SDS011;57767;42.068;24.752;2024-02-26T03:48:42;41.17;;;32.33;;
70342;SDS011;57767;42.068;24.752;2024-02-26T03:49:44;43.22;;;32.60;;
70342;SDS011;57767;42.068;24.752;2024-02-26T03:50:46;43.85;;;32.75;;
70342;SDS011;57767;42.068;24.752;2024-02-26T03:51:48;47.58;;;32.60;;
70342;SDS011;57767;42.068;24.752;2024-02-26T03:52:50;43.63;;;33.65;;
70342;SDS011;57767;42.068;24.752;2024-02-26T03:53:52;42.25;;;31.17;;
70342;SDS011;57767;42.068;24.752;2024-02-26T03:54:53;39.95;;;31.25;;
70342;SDS011;57767;42.068;24.752;2024-02-26T03:55:55;42.80;;;31.98;;
70342;SDS011;57767;42.068;24.752;2024-02-26T03:56:56;43.45;;;31.88;;
70342;SDS011;57767;42.068;24.752;2024-02-26T03:57:58;41.05;;;31.80;;
70342;SDS011;57767;42.068;24.752;2024-02-26T03:59:00;45.72;;;33.80;;
70342;SDS011;57767;42.068;24.752;2024-02-26T04:00:03;42.40;;;32.10;;
70342;SDS011;57767;42.068;24.752;2024-02-26T04:01:08;41.78;;;32.33;;
70342;SDS011;57767;42.068;24.752;2024-02-26T04:02:10;41.92;;;33.13;;
70342;SDS011;57767;42.068;24.752;2024-02-26T04:03:12;41.20;;;33.42;;
70342;SDS011;57767;42.068;24.752;2024-02-26T04:04:14;44.13;;;33.95;;
70342;SDS011;57767;42.068;24.752;2024-02-26T04:05:15;41.63;;;33.70;;
70342;SDS011;57767;42.068;24.752;2024-02-26T04:06:17;48.53;;;36.10;;
70342;SDS011;57767;42.068;24.752;2024-02-26T04:07:22;49.50;;;34.13;;
70342;SDS011;57767;42.068;24.752;2024-02-26T04:08:24;44.05;;;34.70;;
70342;SDS011;57767;42.068;24.752;2024-02-26T04:09:25;45.80;;;35.25;;
70342;SDS011;57767;42.068;24.752;2024-02-26T04:10:27;48.13;;;35.10;;
70342;SDS011;57767;42.068;24.752;2024-02-26T04:11:29;47.55;;;33.78;;
70342;SDS011;57767;42.068;24.752;2024-02-26T04:12:31;47.10;;;35.30;;
70342;SDS011;57767;42.068;24.752;2024-02-26T04:13:33;47.50;;;35.20;;
70342;SDS011;57767;42.068;24.752;2024-02-26T04:14:35;44.65;;;34.60;;
70342;SDS011;57767;42.068;24.752;2024-02-26T04:15:37;44.05;;;35.38;;
70342;SDS011;57767;42.068;24.752;2024-02-26T04:16:38;44.35;;;33.80;;
70342;SDS011;57767;42.068;24.752;2024-02-26T04:17:40;47.80;;;38.13;;
70342;SDS011;57767;42.068;24.752;2024-02-26T04:18:42;50.85;;;37.33;;
70342;SDS011;57767;42.068;24.752;2024-02-26T04:19:44;48.55;;;36.45;;
70342;SDS011;57767;42.068;24.752;2024-02-26T04:20:46;46.97;;;37.38;;
70342;SDS011;57767;42.068;24.752;2024-02-26T04:21:47;48.33;;;37.88;;
70342;SDS011;57767;42.068;24.752;2024-02-26T04:22:49;49.03;;;37.08;;
70342;SDS011;57767;42.068;24.752;2024-02-26T04:23:51;45.83;;;37.83;;
70342;SDS011;57767;42.068;24.752;2024-02-26T04:24:52;50.58;;;38.92;;
70342;SDS011;57767;42.068;24.752;2024-02-26T04:25:54;55.78;;;40.03;;
70342;SDS011;57767;42.068;24.752;2024-02-26T04:26:55;49.67;;;39.90;;
70342;SDS011;57767;42.068;24.752;2024-02-26T04:27:57;52.70;;;39.75;;
70342;SDS011;57767;42.068;24.752;2024-02-26T04:28:59;53.35;;;38.08;;
70342;SDS011;57767;42.068;24.752;2024-02-26T04:30:00;53.60;;;41.25;;
70342;SDS011;57767;42.068;24.752;2024-02-26T04:31:02;53.50;;;41.05;;
70342;SDS011;57767;42.068;24.752;2024-02-26T04:32:04;50.58;;;37.92;;
70342;SDS011;57767;42.068;24.752;2024-02-26T04:33:06;54.35;;;38.95;;
70342;SDS011;57767;42.068;24.752;2024-02-26T04:34:08;47.65;;;39.60;;
70342;SDS011;57767;42.068;24.752;2024-02-26T04:35:14;52.08;;;39.03;;
70342;SDS011;57767;42.068;24.752;2024-02-26T04:36:16;54.50;;;40.15;;
70342;SDS011;57767;42.068;24.752;2024-02-26T04:37:18;49.50;;;39.15;;
70342;SDS011;57767;42.068;24.752;2024-02-26T04:38:19;52.10;;;39.40;;
70342;SDS011;57767;42.068;24.752;2024-02-26T04:39:21;56.95;;;39.13;;
70342;SDS011;57767;42.068;24.752;2024-02-26T04:40:23;54.63;;;39.67;;
70342;SDS011;57767;42.068;24.752;2024-02-26T04:41:25;48.25;;;38.40;;
70342;SDS011;57767;42.068;24.752;2024-02-26T04:42:27;55.10;;;41.28;;
70342;SDS011;57767;42.068;24.752;2024-02-26T04:43:28;52.20;;;38.65;;
70342;SDS011;57767;42.068;24.752;2024-02-26T04:44:30;53.17;;;39.28;;
70342;SDS011;57767;42.068;24.752;2024-02-26T04:45:32;51.92;;;39.38;;
70342;SDS011;57767;42.068;24.752;2024-02-26T04:46:33;51.45;;;39.45;;
70342;SDS011;57767;42.068;24.752;2024-02-26T04:47:35;52.97;;;39.75;;
70342;SDS011;57767;42.068;24.752;2024-02-26T04:48:37;56.58;;;40.38;;
70342;SDS011;57767;42.068;24.752;2024-02-26T04:49:40;59.85;;;43.40;;
70342;SDS011;57767;42.068;24.752;2024-02-26T04:50:42;55.70;;;42.05;;
70342;SDS011;57767;42.068;24.752;2024-02-26T04:51:43;54.13;;;40.50;;
70342;SDS011;57767;42.068;24.752;2024-02-26T04:52:45;57.75;;;40.85;;
70342;SDS011;57767;42.068;24.752;2024-02-26T04:53:46;53.42;;;39.92;;
70342;SDS011;57767;42.068;24.752;2024-02-26T04:54:48;54.75;;;39.72;;
70342;SDS011;57767;42.068;24.752;2024-02-26T04:55:49;54.72;;;40.70;;
70342;SDS011;57767;42.068;24.752;2024-02-26T04:56:51;59.58;;;40.08;;
70342;SDS011;57767;42.068;24.752;2024-02-26T04:57:53;50.03;;;39.03;;
70342;SDS011;57767;42.068;24.752;2024-02-26T04:58:54;78.78;;;53.17;;
70342;SDS011;57767;42.068;24.752;2024-02-26T04:59:56;51.80;;;39.25;;
70342;SDS011;57767;42.068;24.752;2024-02-26T05:00:57;48.72;;;37.08;;
70342;SDS011;57767;42.068;24.752;2024-02-26T05:01:59;48.83;;;37.80;;
70342;SDS011;57767;42.068;24.752;2024-02-26T05:03:01;48.15;;;36.13;;
70342;SDS011;57767;42.068;24.752;2024-02-26T05:04:03;50.03;;;36.35;;
70342;SDS011;57767;42.068;24.752;2024-02-26T05:05:05;48.55;;;35.65;;
70342;SDS011;57767;42.068;24.752;2024-02-26T05:06:08;46.85;;;34.70;;
70342;SDS011;57767;42.068;24.752;2024-02-26T05:07:10;42.38;;;34.22;;
70342;SDS011;57767;42.068;24.752;2024-02-26T05:08:14;43.42;;;34.72;;
70342;SDS011;57767;42.068;24.752;2024-02-26T05:09:15;41.63;;;33.10;;
70342;SDS011;57767;42.068;24.752;2024-02-26T05:10:17;48.13;;;32.67;;
70342;SDS011;57767;42.068;24.752;2024-02-26T05:11:19;43.00;;;33.33;;
70342;SDS011;57767;42.068;24.752;2024-02-26T05:12:21;41.80;;;33.15;;
70342;SDS011;57767;42.068;24.752;2024-02-26T05:13:22;43.72;;;32.60;;
70342;SDS011;57767;42.068;24.752;2024-02-26T05:14:24;43.50;;;32.67;;
70342;SDS011;57767;42.068;24.752;2024-02-26T05:15:25;42.30;;;32.03;;
70342;SDS011;57767;42.068;24.752;2024-02-26T05:16:27;42.17;;;32.28;;
70342;SDS011;57767;42.068;24.752;2024-02-26T05:17:31;42.80;;;32.33;;
70342;SDS011;57767;42.068;24.752;2024-02-26T05:18:33;44.00;;;32.15;;
70342;SDS011;57767;42.068;24.752;2024-02-26T05:19:34;43.78;;;32.25;;
70342;SDS011;57767;42.068;24.752;2024-02-26T05:20:36;41.15;;;31.83;;
70342;SDS011;57767;42.068;24.752;2024-02-26T05:21:39;41.22;;;30.48;;
70342;SDS011;57767;42.068;24.752;2024-02-26T05:22:41;40.20;;;30.42;;
70342;SDS011;57767;42.068;24.752;2024-02-26T05:23:43;42.45;;;30.38;;
70342;SDS011;57767;42.068;24.752;2024-02-26T05:24:46;42.83;;;29.52;;
70342;SDS011;57767;42.068;24.752;2024-02-26T05:25:48;39.30;;;28.92;;
70342;SDS011;57767;42.068;24.752;2024-02-26T05:26:50;43.50;;;29.23;;
70342;SDS011;57767;42.068;24.752;2024-02-26T05:27:52;37.45;;;27.55;;
70342;SDS011;57767;42.068;24.752;2024-02-26T05:28:53;35.70;;;26.85;;
70342;SDS011;57767;42.068;24.752;2024-02-26T05:30:00;34.83;;;26.48;;
70342;SDS011;57767;42.068;24.752;2024-02-26T05:31:02;42.03;;;27.05;;
70342;SDS011;57767;42.068;24.752;2024-02-26T05:32:05;34.40;;;26.00;;
70342;SDS011;57767;42.068;24.752;2024-02-26T05:33:07;34.55;;;25.83;;
70342;SDS011;57767;42.068;24.752;2024-02-26T05:34:09;36.03;;;25.95;;
70342;SDS011;57767;42.068;24.752;2024-02-26T05:35:11;36.42;;;25.95;;
70342;SDS011;57767;42.068;24.752;2024-02-26T05:36:19;33.72;;;25.08;;
70342;SDS011;57767;42.068;24.752;2024-02-26T05:37:25;33.78;;;24.92;;
70342;SDS011;57767;42.068;24.752;2024-02-26T05:38:27;38.30;;;25.15;;
70342;SDS011;57767;42.068;24.752;2024-02-26T05:39:28;33.97;;;25.52;;
70342;SDS011;57767;42.068;24.752;2024-02-26T05:40:30;35.20;;;24.52;;
70342;SDS011;57767;42.068;24.752;2024-02-26T05:41:32;35.00;;;25.00;;
70342;SDS011;57767;42.068;24.752;2024-02-26T05:42:34;34.30;;;24.73;;
70342;SDS011;57767;42.068;24.752;2024-02-26T05:43:35;41.50;;;24.13;;
70342;SDS011;57767;42.068;24.752;2024-02-26T05:44:37;38.05;;;25.20;;
70342;SDS011;57767;42.068;24.752;2024-02-26T05:45:38;37.13;;;23.50;;
70342;SDS011;57767;42.068;24.752;2024-02-26T05:46:40;37.80;;;23.80;;
70342;SDS011;57767;42.068;24.752;2024-02-26T05:47:43;40.63;;;23.75;;
70342;SDS011;57767;42.068;24.752;2024-02-26T05:48:50;34.72;;;23.60;;
70342;SDS011;57767;42.068;24.752;2024-02-26T05:49:52;34.83;;;22.20;;
70342;SDS011;57767;42.068;24.752;2024-02-26T05:50:54;30.50;;;21.65;;
70342;SDS011;57767;42.068;24.752;2024-02-26T05:51:56;31.75;;;22.63;;
70342;SDS011;57767;42.068;24.752;2024-02-26T05:52:58;30.52;;;22.10;;
70342;SDS011;57767;42.068;24.752;2024-02-26T05:53:59;29.73;;;21.40;;
70342;SDS011;57767;42.068;24.752;2024-02-26T05:55:04;31.60;;;21.63;;
70342;SDS011;57767;42.068;24.752;2024-02-26T05:56:06;32.58;;;20.88;;
70342;SDS011;57767;42.068;24.752;2024-02-26T05:57:08;29.00;;;20.20;;